createdAt,value
2023-01-07T00:00:07.336Z,10.10
2023-01-07T00:02:35.643Z,10.10
2023-01-07T00:05:04.014Z,10.10
2023-01-07T00:07:32.420Z,10.10
2023-01-07T00:10:00.689Z,10.10
2023-01-07T00:12:30.354Z,10.10
2023-01-07T00:14:58.625Z,10.20
2023-01-07T00:17:27.013Z,10.20
2023-01-07T00:19:55.294Z,10.20
2023-01-07T00:22:23.620Z,10.20
2023-01-07T00:24:51.957Z,10.20
2023-01-07T00:27:20.331Z,10.10
2023-01-07T00:29:50.067Z,10.20
2023-01-07T00:32:18.451Z,10.10
2023-01-07T00:34:46.962Z,10.20
2023-01-07T00:37:32.732Z,10.10
2023-01-07T00:40:01.042Z,10.20
2023-01-07T00:42:46.873Z,10.10
2023-01-07T00:45:16.816Z,10.10
2023-01-07T00:47:45.054Z,10.10
2023-01-07T00:50:13.468Z,10.10
2023-01-07T00:52:41.909Z,10.10
2023-01-07T00:55:11.897Z,10.10
2023-01-07T00:57:40.188Z,10.10
2023-01-07T01:00:09.564Z,10.10
2023-01-07T01:02:39.803Z,10.10
2023-01-07T01:05:08.965Z,10.10
2023-01-07T01:07:37.789Z,10.10
2023-01-07T01:10:09.218Z,10.10
2023-01-07T01:12:38.112Z,10.10
2023-01-07T01:15:08.897Z,10.10
2023-01-07T01:17:39.049Z,10.10
2023-01-07T01:20:09.771Z,10.10
2023-01-07T01:22:38.470Z,10.10
2023-01-07T01:25:07.600Z,10.10
2023-01-07T01:27:36.072Z,10.20
2023-01-07T01:30:04.941Z,10.20
2023-01-07T01:32:33.430Z,10.10
2023-01-07T01:35:03.081Z,10.20
2023-01-07T01:37:31.579Z,10.20
2023-01-07T01:40:03.980Z,10.20
2023-01-07T01:42:32.942Z,10.10
2023-01-07T01:45:02.579Z,10.10
2023-01-07T01:47:38.150Z,10.10
2023-01-07T01:50:14.599Z,10.10
2023-01-07T01:52:48.645Z,10.10
2023-01-07T01:55:20.761Z,10.20
2023-01-07T01:57:53.490Z,10.20
2023-01-07T02:00:22.335Z,10.20
2023-01-07T02:02:54.802Z,10.10
2023-01-07T02:05:27.488Z,10.20
2023-01-07T02:07:55.756Z,10.10
2023-01-07T02:10:26.769Z,10.10
2023-01-07T02:13:11.065Z,10.10
2023-01-07T02:15:50.200Z,10.10
2023-01-07T02:18:39.890Z,10.10
2023-01-07T02:21:21.272Z,10.10
2023-01-07T02:24:40.244Z,10.10
2023-01-07T02:27:33.959Z,10.10
2023-01-07T02:30:47.075Z,10.10
2023-01-07T02:33:39.471Z,10.10
2023-01-07T02:36:48.660Z,10.00
2023-01-07T02:39:39.876Z,10.00
2023-01-07T02:42:16.252Z,10.00
2023-01-07T02:44:51.266Z,10.00
2023-01-07T02:47:28.526Z,10.00
2023-01-07T02:49:58.330Z,9.90
2023-01-07T02:52:29.003Z,9.90
2023-01-07T02:55:01.303Z,9.90
2023-01-07T02:57:57.626Z,9.90
2023-01-07T03:00:41.400Z,9.90
2023-01-07T03:03:23.693Z,9.90
2023-01-07T03:06:06.173Z,9.90
2023-01-07T03:08:45.727Z,9.80
2023-01-07T03:11:14.699Z,9.80
2023-01-07T03:13:48.742Z,9.80
2023-01-07T03:16:22.538Z,9.90
2023-01-07T03:18:56.083Z,9.90
2023-01-07T03:21:28.273Z,9.90
2023-01-07T03:23:58.828Z,9.90
2023-01-07T03:26:32.898Z,9.90
2023-01-07T03:29:03.811Z,9.90
2023-01-07T03:31:33.650Z,9.90
2023-01-07T03:34:06.639Z,9.90
2023-01-07T03:36:40.680Z,9.90
2023-01-07T03:39:11.902Z,9.90
2023-01-07T03:41:58.235Z,9.80
2023-01-07T03:44:26.870Z,9.80
2023-01-07T03:46:55.648Z,9.80
2023-01-07T03:49:24.052Z,9.80
2023-01-07T03:51:54.767Z,9.80
2023-01-07T03:54:24.501Z,9.80
2023-01-07T03:56:53.130Z,9.80
2023-01-07T03:59:21.612Z,9.80
2023-01-07T04:01:50.235Z,9.70
2023-01-07T04:04:18.878Z,9.70
2023-01-07T04:06:47.457Z,9.70
2023-01-07T04:09:18.887Z,9.70
2023-01-07T04:11:47.312Z,9.60
2023-01-07T04:14:15.802Z,9.60
2023-01-07T04:16:44.375Z,9.60
2023-01-07T04:19:12.914Z,9.50
2023-01-07T04:21:41.418Z,9.50
2023-01-07T04:24:10.359Z,9.50
2023-01-07T04:26:40.338Z,9.50
2023-01-07T04:29:08.856Z,9.50
2023-01-07T04:31:37.363Z,9.50
2023-01-07T04:34:05.769Z,9.50
2023-01-07T04:36:35.052Z,9.50
2023-01-07T04:39:03.351Z,9.50
2023-01-07T04:41:31.780Z,9.40
2023-01-07T04:44:01.642Z,9.40
2023-01-07T04:46:30.018Z,9.30
2023-01-07T04:48:58.805Z,9.30
2023-01-07T04:51:28.640Z,9.30
2023-01-07T04:53:58.484Z,9.30
2023-01-07T04:56:26.901Z,9.30
2023-01-07T04:58:55.388Z,9.30
2023-01-07T05:01:25.645Z,9.30
2023-01-07T05:03:54.373Z,9.30
2023-01-07T05:06:22.871Z,9.30
2023-01-07T05:08:51.359Z,9.30
2023-01-07T05:11:21.763Z,9.30
2023-01-07T05:13:50.659Z,9.30
2023-01-07T05:16:19.227Z,9.30
2023-01-07T05:18:49.003Z,9.30
2023-01-07T05:21:18.059Z,9.30
2023-01-07T05:23:46.465Z,9.30
2023-01-07T05:26:14.942Z,9.30
2023-01-07T05:28:43.411Z,9.30
2023-01-07T05:31:11.838Z,9.30
2023-01-07T05:33:40.391Z,9.30
2023-01-07T05:36:10.965Z,9.30
2023-01-07T05:38:39.380Z,9.30
2023-01-07T05:41:08.532Z,9.30
2023-01-07T05:43:36.980Z,9.30
2023-01-07T05:46:05.628Z,9.30
2023-01-07T05:48:34.498Z,9.20
2023-01-07T05:51:02.911Z,9.20
2023-01-07T05:53:32.809Z,9.20
2023-01-07T05:56:02.180Z,9.20
2023-01-07T05:58:30.627Z,9.20
2023-01-07T06:00:58.923Z,9.20
2023-01-07T06:03:27.377Z,9.20
2023-01-07T06:05:58.797Z,9.20
2023-01-07T06:08:27.119Z,9.20
2023-01-07T06:10:56.991Z,9.20
2023-01-07T06:13:25.398Z,9.20
2023-01-07T06:15:54.134Z,9.20
2023-01-07T06:18:22.549Z,9.20
2023-01-07T06:20:52.183Z,9.20
2023-01-07T06:23:20.613Z,9.10
2023-01-07T06:25:49.092Z,9.10
2023-01-07T06:28:18.965Z,9.10
2023-01-07T06:30:47.740Z,9.10
2023-01-07T06:33:16.789Z,9.10
2023-01-07T06:35:47.889Z,9.10
2023-01-07T06:38:16.390Z,9.10
2023-01-07T06:40:45.588Z,9.10
2023-01-07T06:43:14.169Z,9.10
2023-01-07T06:45:45.058Z,9.10
2023-01-07T06:48:13.581Z,9.00
2023-01-07T06:50:42.074Z,9.00
2023-01-07T06:53:10.550Z,9.00
2023-01-07T06:55:38.979Z,9.00
2023-01-07T06:58:07.488Z,9.00
2023-01-07T07:00:35.914Z,9.10
2023-01-07T07:03:05.869Z,9.10
2023-01-07T07:05:35.308Z,9.10
2023-01-07T07:08:04.270Z,9.10
2023-01-07T07:10:32.930Z,9.10
2023-01-07T07:13:01.369Z,9.20
2023-01-07T07:15:29.960Z,9.10
2023-01-07T07:17:59.077Z,9.10
2023-01-07T07:20:29.267Z,9.10
2023-01-07T07:22:57.670Z,9.10
2023-01-07T07:25:26.065Z,9.10
2023-01-07T07:27:54.512Z,9.10
2023-01-07T07:30:22.899Z,9.10
2023-01-07T07:33:12.672Z,9.10
2023-01-07T07:35:42.484Z,9.10
2023-01-07T07:38:10.786Z,9.10
2023-01-07T07:40:39.381Z,9.10
2023-01-07T07:43:11.820Z,9.10
2023-01-07T07:45:41.311Z,9.10
2023-01-07T07:48:10.329Z,9.20
2023-01-07T07:50:38.928Z,9.30
2023-01-07T07:53:10.616Z,9.30
2023-01-07T07:55:40.566Z,9.40
2023-01-07T07:58:09.227Z,9.40
2023-01-07T08:00:37.879Z,9.50
2023-01-07T08:03:06.883Z,9.50
2023-01-07T08:05:35.760Z,9.50
2023-01-07T08:08:04.132Z,9.60
2023-01-07T08:10:33.958Z,9.60
2023-01-07T08:13:02.341Z,9.60
2023-01-07T08:15:30.926Z,9.70
2023-01-07T08:18:01.068Z,9.80
2023-01-07T08:20:29.912Z,9.80
2023-01-07T08:23:00.366Z,9.80
2023-01-07T08:25:28.940Z,9.90
2023-01-07T08:28:00.027Z,9.90
2023-01-07T08:30:28.910Z,9.90
2023-01-07T08:32:57.928Z,9.90
2023-01-07T08:35:26.549Z,10.00
2023-01-07T08:38:02.477Z,10.10
2023-01-07T08:40:30.986Z,10.10
2023-01-07T08:43:01.483Z,10.10
2023-01-07T08:45:30.878Z,10.10
2023-01-07T08:47:59.690Z,10.20
2023-01-07T08:50:28.542Z,10.20
2023-01-07T08:52:57.441Z,10.20
2023-01-07T08:55:26.314Z,10.30
2023-01-07T08:57:54.784Z,10.30
2023-01-07T09:00:25.156Z,10.30
2023-01-07T09:02:53.720Z,10.40
2023-01-07T09:05:22.251Z,10.40
2023-01-07T09:07:53.547Z,10.50
2023-01-07T09:10:22.285Z,10.50
2023-01-07T09:12:50.884Z,10.50
2023-01-07T09:15:19.569Z,10.60
2023-01-07T09:17:49.408Z,10.60
2023-01-07T09:20:18.020Z,10.60
2023-01-07T09:22:46.541Z,10.60
2023-01-07T09:25:15.263Z,10.70
2023-01-07T09:27:43.657Z,10.70
2023-01-07T09:30:13.154Z,10.70
2023-01-07T09:32:43.184Z,10.70
2023-01-07T09:35:13.891Z,10.80
2023-01-07T09:37:42.342Z,10.80
2023-01-07T09:40:20.991Z,10.80
2023-01-07T09:42:57.461Z,10.80
2023-01-07T09:45:31.008Z,10.90
2023-01-07T09:48:02.544Z,10.90
2023-01-07T09:50:44.314Z,10.90
2023-01-07T09:53:17.272Z,10.90
2023-01-07T09:56:11.847Z,10.90
2023-01-07T09:58:38.039Z,10.90
2023-01-07T10:01:17.577Z,10.90
2023-01-07T10:03:55.612Z,10.90
2023-01-07T10:06:43.511Z,10.90
2023-01-07T10:09:26.948Z,10.90
2023-01-07T10:12:03.508Z,10.90
2023-01-07T10:15:03.121Z,10.90
2023-01-07T10:17:42.650Z,10.90
2023-01-07T10:20:19.459Z,10.90
2023-01-07T10:22:53.251Z,10.90
2023-01-07T10:25:25.337Z,10.90
2023-01-07T10:27:55.969Z,10.90
2023-01-07T10:30:27.548Z,10.90
2023-01-07T10:33:16.197Z,10.90
2023-01-07T10:35:45.008Z,10.90
2023-01-07T10:38:19.405Z,10.90
2023-01-07T10:40:53.458Z,10.90
2023-01-07T10:43:33.058Z,10.90
2023-01-07T10:46:23.729Z,11.00
2023-01-07T10:49:11.782Z,11.00
2023-01-07T10:51:55.583Z,11.00
2023-01-07T10:54:44.290Z,11.00
2023-01-07T10:57:19.136Z,11.00
2023-01-07T10:59:51.615Z,11.00
2023-01-07T11:02:22.030Z,11.00
2023-01-07T11:04:50.787Z,11.00
2023-01-07T11:07:29.598Z,11.00
2023-01-07T11:10:04.390Z,11.00
2023-01-07T11:12:39.270Z,11.10
2023-01-07T11:15:15.268Z,11.10
2023-01-07T11:17:47.897Z,11.10
2023-01-07T11:20:42.187Z,11.10
2023-01-07T11:23:30.185Z,11.20
2023-01-07T11:26:14.258Z,11.20
2023-01-07T11:28:52.071Z,11.20
2023-01-07T11:31:20.960Z,11.20
2023-01-07T11:34:03.912Z,11.30
2023-01-07T11:36:42.917Z,11.30
2023-01-07T11:39:19.125Z,11.30
2023-01-07T11:41:57.107Z,11.30
2023-01-07T11:44:25.765Z,11.30
2023-01-07T11:46:54.846Z,11.30
2023-01-07T11:49:27.639Z,11.40
2023-01-07T11:51:56.432Z,11.40
2023-01-07T11:54:27.391Z,11.40
2023-01-07T11:57:12.782Z,11.40
2023-01-07T11:59:41.074Z,11.40
2023-01-07T12:02:25.086Z,11.40
2023-01-07T12:04:53.605Z,11.40
2023-01-07T12:07:23.854Z,11.40
2023-01-07T12:09:52.238Z,11.40
2023-01-07T12:12:34.836Z,11.40
2023-01-07T12:15:06.050Z,11.50
2023-01-07T12:17:36.549Z,11.50
2023-01-07T12:20:37.536Z,11.50
2023-01-07T12:23:18.522Z,11.50
2023-01-07T12:25:55.169Z,11.60
2023-01-07T12:28:31.509Z,11.60
2023-01-07T12:31:23.855Z,11.70
2023-01-07T12:34:09.060Z,11.70
2023-01-07T12:36:43.712Z,11.80
2023-01-07T12:39:18.700Z,11.80
2023-01-07T12:41:55.528Z,11.90
2023-01-07T12:44:25.779Z,11.90
2023-01-07T12:47:30.537Z,11.90
2023-01-07T12:49:58.005Z,11.90
2023-01-07T12:52:38.535Z,11.90
2023-01-07T12:55:17.244Z,11.90
2023-01-07T12:57:50.487Z,11.90
2023-01-07T13:00:25.330Z,11.80
2023-01-07T13:03:01.261Z,11.80
2023-01-07T13:05:37.572Z,11.80
2023-01-07T13:08:13.607Z,11.90
2023-01-07T13:10:44.199Z,12.00
2023-01-07T13:13:18.297Z,12.00
2023-01-07T13:15:50.386Z,12.00
2023-01-07T13:18:20.313Z,12.00
2023-01-07T13:21:04.699Z,12.10
2023-01-07T13:23:48.641Z,12.30
2023-01-07T13:26:31.466Z,12.30
2023-01-07T13:29:15.445Z,12.50
2023-01-07T13:32:17.414Z,12.70
2023-01-07T13:35:00.081Z,13.00
2023-01-07T13:37:47.732Z,12.90
2023-01-07T13:40:31.735Z,12.80
2023-01-07T13:43:10.609Z,12.60
2023-01-07T13:45:42.391Z,12.40
2023-01-07T13:48:20.261Z,12.30
2023-01-07T13:50:58.744Z,12.20
2023-01-07T13:53:34.185Z,12.10
2023-01-07T13:56:32.955Z,12.00
2023-01-07T13:59:01.691Z,12.00
2023-01-07T14:01:32.893Z,12.00
2023-01-07T14:04:34.508Z,11.90
2023-01-07T14:07:03.360Z,11.80
2023-01-07T14:09:38.512Z,11.70
2023-01-07T14:12:46.565Z,11.70
2023-01-07T14:15:56.708Z,11.60
2023-01-07T14:18:48.834Z,11.60
2023-01-07T14:21:50.681Z,11.50
2023-01-07T14:24:46.159Z,11.50
2023-01-07T14:27:33.347Z,11.50
2023-01-07T14:30:15.988Z,11.50
2023-01-07T14:32:45.874Z,11.50
2023-01-07T14:35:27.020Z,11.50
2023-01-07T14:37:56.930Z,11.40
2023-01-07T14:41:02.370Z,11.40
2023-01-07T14:44:05.515Z,11.40
2023-01-07T14:46:51.721Z,11.40
2023-01-07T14:50:06.493Z,11.30
2023-01-07T14:53:09.467Z,11.30
2023-01-07T14:56:06.052Z,11.30
2023-01-07T14:58:49.501Z,11.30
2023-01-07T15:01:36.856Z,11.30
2023-01-07T15:04:53.099Z,11.30
2023-01-07T15:07:25.264Z,11.20
2023-01-07T15:10:15.018Z,11.20
2023-01-07T15:13:03.715Z,11.10
2023-01-07T15:15:54.843Z,11.00
2023-01-07T15:18:24.019Z,10.90
2023-01-07T15:21:10.512Z,10.90
2023-01-07T15:23:47.858Z,10.80
2023-01-07T15:26:23.279Z,10.80
2023-01-07T15:29:01.573Z,10.80
2023-01-07T15:31:38.237Z,10.80
2023-01-07T15:34:10.798Z,10.70
2023-01-07T15:36:42.766Z,10.70
2023-01-07T15:39:19.628Z,10.70
2023-01-07T15:41:48.351Z,10.60
2023-01-07T15:44:22.979Z,10.50
2023-01-07T15:46:51.358Z,10.50
2023-01-07T15:49:25.331Z,10.40
2023-01-07T15:51:56.785Z,10.30
2023-01-07T15:54:36.003Z,10.30
2023-01-07T15:57:08.562Z,10.30
2023-01-07T15:59:42.819Z,10.30
2023-01-07T16:02:24.264Z,10.30
2023-01-07T16:04:55.876Z,10.20
2023-01-07T16:07:28.540Z,10.20
2023-01-07T16:09:58.000Z,10.20
2023-01-07T16:12:31.030Z,10.10
2023-01-07T16:15:02.921Z,10.10
2023-01-07T16:17:32.652Z,10.10
2023-01-07T16:20:20.450Z,10.10
2023-01-07T16:22:49.412Z,10.10
2023-01-07T16:25:24.593Z,10.00
2023-01-07T16:27:53.515Z,9.90
2023-01-07T16:30:23.980Z,9.90
2023-01-07T16:32:54.742Z,9.90
2023-01-07T16:35:30.240Z,9.80
2023-01-07T16:37:59.074Z,9.80
2023-01-07T16:40:32.535Z,9.80
2023-01-07T16:43:00.907Z,9.80
2023-01-07T16:45:32.655Z,9.70
2023-01-07T16:48:20.118Z,9.70
2023-01-07T16:50:50.101Z,9.70
2023-01-07T16:53:25.088Z,9.70
2023-01-07T16:55:55.866Z,9.60
2023-01-07T16:58:30.397Z,9.50
2023-01-07T17:01:03.223Z,9.40
2023-01-07T17:03:36.290Z,9.40
2023-01-07T17:06:07.911Z,9.40
2023-01-07T17:08:37.256Z,9.40
2023-01-07T17:11:09.648Z,9.30
2023-01-07T17:13:40.264Z,9.40
2023-01-07T17:16:29.177Z,9.30
2023-01-07T17:18:58.972Z,9.20
2023-01-07T17:21:42.552Z,9.20
2023-01-07T17:24:44.701Z,9.20
2023-01-07T17:27:21.875Z,9.10
2023-01-07T17:29:53.503Z,9.10
2023-01-07T17:32:24.408Z,9.10
2023-01-07T17:34:52.856Z,9.10
2023-01-07T17:37:21.199Z,9.00
2023-01-07T17:39:51.273Z,9.00
2023-01-07T17:42:42.631Z,9.00
2023-01-07T17:45:16.840Z,9.00
2023-01-07T17:47:49.502Z,8.90
2023-01-07T17:50:19.279Z,8.90
2023-01-07T17:52:50.097Z,8.90
2023-01-07T17:55:22.238Z,8.90
2023-01-07T17:57:50.617Z,8.90
2023-01-07T18:00:21.877Z,8.90
2023-01-07T18:02:52.564Z,8.90
2023-01-07T18:05:22.868Z,8.90
2023-01-07T18:07:52.651Z,8.90
2023-01-07T18:10:25.684Z,8.90
2023-01-07T18:12:53.094Z,9.00
2023-01-07T18:15:24.847Z,9.10
2023-01-07T18:17:54.713Z,9.10
2023-01-07T18:20:24.158Z,9.00
2023-01-07T18:22:52.583Z,9.00
2023-01-07T18:25:22.503Z,9.10
2023-01-07T18:27:53.302Z,9.10
2023-01-07T18:30:23.175Z,9.10
2023-01-07T18:32:53.669Z,9.10
2023-01-07T18:35:23.888Z,9.10
2023-01-07T18:37:52.809Z,9.00
2023-01-07T18:40:21.328Z,9.10
2023-01-07T18:42:49.995Z,9.10
2023-01-07T18:45:18.490Z,9.10
2023-01-07T18:47:47.078Z,9.10
2023-01-07T18:50:15.872Z,9.10
2023-01-07T18:52:45.573Z,9.10
2023-01-07T18:55:16.192Z,9.10
2023-01-07T18:57:44.510Z,9.00
2023-01-07T19:00:14.171Z,9.00
2023-01-07T19:02:42.487Z,9.00
2023-01-07T19:05:11.196Z,9.00
2023-01-07T19:07:39.553Z,9.00
2023-01-07T19:10:10.514Z,9.00
2023-01-07T19:12:39.191Z,9.00
2023-01-07T19:15:08.781Z,9.00
2023-01-07T19:17:37.431Z,9.00
2023-01-07T19:20:06.477Z,9.00
2023-01-07T19:22:34.938Z,9.10
2023-01-07T19:25:03.323Z,9.10
2023-01-07T19:27:33.023Z,9.10
2023-01-07T19:30:01.328Z,9.00
2023-01-07T19:32:30.922Z,9.00
2023-01-07T19:34:59.439Z,9.10
2023-01-07T19:37:27.822Z,9.10
2023-01-07T19:39:56.211Z,9.10
2023-01-07T19:42:24.618Z,9.10
2023-01-07T19:44:54.376Z,9.10
2023-01-07T19:47:23.311Z,9.10
2023-01-07T19:49:51.793Z,9.10
2023-01-07T19:52:20.218Z,9.10
2023-01-07T19:54:48.795Z,9.10
2023-01-07T19:57:17.082Z,9.20
2023-01-07T19:59:45.662Z,9.20
2023-01-07T20:02:15.670Z,9.20
2023-01-07T20:04:44.209Z,9.20
2023-01-07T20:07:12.622Z,9.20
2023-01-07T20:09:41.375Z,9.20
2023-01-07T20:12:09.845Z,9.10
2023-01-07T20:14:38.280Z,9.10
2023-01-07T20:17:06.515Z,9.10
2023-01-07T20:19:36.327Z,9.10
2023-01-07T20:22:04.724Z,9.20
2023-01-07T20:24:33.600Z,9.20
2023-01-07T20:27:02.062Z,9.30
2023-01-07T20:29:30.600Z,9.30
2023-01-07T20:31:59.037Z,9.30
2023-01-07T20:34:28.451Z,9.20
2023-01-07T20:37:14.706Z,9.20
2023-01-07T20:39:42.923Z,9.30
2023-01-07T20:42:11.490Z,9.30
2023-01-07T20:44:41.597Z,9.40
2023-01-07T20:47:10.473Z,9.40
2023-01-07T20:49:38.837Z,9.40
2023-01-07T20:52:08.605Z,9.40
2023-01-07T20:54:36.889Z,9.50
2023-01-07T20:57:05.416Z,9.50
2023-01-07T20:59:33.717Z,9.50
2023-01-07T21:02:02.351Z,9.60
2023-01-07T21:04:30.809Z,9.60
2023-01-07T21:06:59.200Z,9.60
2023-01-07T21:09:28.863Z,9.60
2023-01-07T21:11:57.156Z,9.60
2023-01-07T21:14:28.239Z,9.60
2023-01-07T21:16:56.428Z,9.60
2023-01-07T21:19:25.167Z,9.60
2023-01-07T21:21:53.411Z,9.60
2023-01-07T21:24:21.811Z,9.50
2023-01-07T21:26:51.499Z,9.50
2023-01-07T21:29:21.092Z,9.40
2023-01-07T21:31:49.438Z,9.40
2023-01-07T21:34:17.808Z,9.40
2023-01-07T21:36:46.268Z,9.40
2023-01-07T21:39:14.759Z,9.40
2023-01-07T21:41:43.006Z,9.40
2023-01-07T21:44:13.978Z,9.40
2023-01-07T21:46:42.337Z,9.40
2023-01-07T21:49:10.759Z,9.50
2023-01-07T21:51:39.175Z,9.50
2023-01-07T21:54:07.447Z,9.50
2023-01-07T21:56:36.009Z,9.50
2023-01-07T21:59:04.307Z,9.50
2023-01-07T22:01:34.146Z,9.60
2023-01-07T22:04:02.961Z,9.60
2023-01-07T22:06:33.158Z,9.60
2023-01-07T22:09:06.158Z,9.70
2023-01-07T22:11:36.264Z,9.70
2023-01-07T22:14:04.613Z,9.70
2023-01-07T22:16:34.645Z,9.60
2023-01-07T22:19:03.008Z,9.70
2023-01-07T22:21:31.871Z,9.70
2023-01-07T22:24:00.213Z,9.80
2023-01-07T22:26:28.662Z,9.80
2023-01-07T22:29:01.915Z,9.70
2023-01-07T22:31:36.622Z,9.70
2023-01-07T22:34:05.697Z,9.70
2023-01-07T22:36:39.633Z,9.80
2023-01-07T22:39:11.667Z,9.80
2023-01-07T22:41:40.330Z,9.80
2023-01-07T22:44:13.989Z,9.80
2023-01-07T22:46:46.480Z,9.70
2023-01-07T22:49:15.169Z,9.70
2023-01-07T22:51:47.532Z,9.60
2023-01-07T22:54:17.567Z,9.60
2023-01-07T22:56:46.543Z,9.60
2023-01-07T22:59:14.781Z,9.60
2023-01-07T23:01:44.664Z,9.70
2023-01-07T23:04:13.308Z,9.70
2023-01-07T23:06:41.689Z,9.80
2023-01-07T23:09:10.111Z,9.80
2023-01-07T23:11:50.871Z,9.80
2023-01-07T23:14:21.085Z,9.80
2023-01-07T23:16:51.515Z,9.90
2023-01-07T23:19:20.891Z,9.90
2023-01-07T23:21:51.450Z,9.90
2023-01-07T23:24:20.634Z,9.90
2023-01-07T23:26:49.821Z,10.00
2023-01-07T23:29:18.229Z,10.00
2023-01-07T23:31:46.627Z,10.10
2023-01-07T23:34:17.124Z,10.10
2023-01-07T23:36:45.715Z,10.10
2023-01-07T23:39:14.319Z,10.20
2023-01-07T23:41:42.557Z,10.20
2023-01-07T23:44:11.067Z,10.20
2023-01-07T23:46:39.370Z,10.20
2023-01-07T23:49:07.678Z,10.30
2023-01-07T23:51:37.574Z,10.30
2023-01-07T23:54:05.981Z,10.20
2023-01-07T23:56:34.700Z,10.30
2023-01-07T23:59:03.353Z,10.20
